createdAt,value
2022-11-04T00:02:49.986Z,8.27
2022-11-04T00:05:51.607Z,9.55
2022-11-04T00:08:54.301Z,5.65
2022-11-04T00:12:14.826Z,17.45
2022-11-04T00:15:34.834Z,4.38
2022-11-04T00:18:36.456Z,19.77
2022-11-04T00:21:56.442Z,6.93
2022-11-04T00:25:16.456Z,8.48
2022-11-04T00:28:37.488Z,8.27
2022-11-04T00:31:57.686Z,4.53
2022-11-04T00:34:59.225Z,6.07
2022-11-04T00:38:00.768Z,10.55
2022-11-04T00:41:02.334Z,12.55
2022-11-04T00:44:05.013Z,10.13
2022-11-04T00:47:06.549Z,8.40
2022-11-04T00:50:08.327Z,12.48
2022-11-04T00:53:10.181Z,8.18
2022-11-04T00:56:12.116Z,10.38
2022-11-04T00:59:14.649Z,11.63
2022-11-04T01:02:16.495Z,18.30
2022-11-04T01:05:18.241Z,4.45
2022-11-04T01:08:19.808Z,7.22
2022-11-04T01:11:21.389Z,4.97
2022-11-04T01:14:23.084Z,8.27
2022-11-04T01:17:24.686Z,5.43
2022-11-04T01:20:26.246Z,14.27
2022-11-04T01:23:27.848Z,6.93
2022-11-04T01:26:30.439Z,9.32
2022-11-04T01:29:32.078Z,10.23
2022-11-04T01:32:33.662Z,5.65
2022-11-04T01:35:35.289Z,14.13
2022-11-04T01:38:36.919Z,2.88
2022-11-04T01:41:38.885Z,2.60
2022-11-04T01:44:43.214Z,5.68
2022-11-04T01:47:47.720Z,2.63
2022-11-04T01:50:50.195Z,5.15
2022-11-04T01:53:54.088Z,13.60
2022-11-04T01:56:56.093Z,8.98
2022-11-04T01:59:58.568Z,5.55
2022-11-04T02:03:06.424Z,2.20
2022-11-04T02:06:08.681Z,13.77
2022-11-04T02:09:10.681Z,14.30
2022-11-04T02:12:30.818Z,12.55
2022-11-04T02:15:39.058Z,3.22
2022-11-04T02:18:43.380Z,3.60
2022-11-04T02:22:03.400Z,10.23
2022-11-04T02:25:08.560Z,9.77
2022-11-04T02:28:15.913Z,3.72
2022-11-04T02:31:23.562Z,6.72
2022-11-04T02:34:43.617Z,6.15
2022-11-04T02:37:48.304Z,8.77
2022-11-04T02:40:53.195Z,7.22
2022-11-04T02:43:57.699Z,9.30
2022-11-04T02:47:07.804Z,12.90
2022-11-04T02:50:09.416Z,10.00
2022-11-04T02:53:31.174Z,9.32
2022-11-04T02:56:34.216Z,11.20
2022-11-04T02:59:44.865Z,3.50
2022-11-04T03:02:58.351Z,9.90
2022-11-04T03:06:01.262Z,17.23
2022-11-04T03:09:03.909Z,10.60
2022-11-04T03:12:12.396Z,4.65
2022-11-04T03:15:19.064Z,9.35
2022-11-04T03:18:23.433Z,15.38
2022-11-04T03:21:25.898Z,20.92
2022-11-04T03:24:27.802Z,5.70
2022-11-04T03:27:32.317Z,14.75
2022-11-04T03:30:38.519Z,7.90
2022-11-04T03:33:43.450Z,9.68
2022-11-04T03:36:45.036Z,12.77
2022-11-04T03:39:46.897Z,5.20
2022-11-04T03:43:09.294Z,10.40
2022-11-04T03:46:11.343Z,13.98
2022-11-04T03:49:13.567Z,6.38
2022-11-04T03:52:16.625Z,12.65
2022-11-04T03:55:18.220Z,5.90
2022-11-04T03:58:19.815Z,2.65
2022-11-04T04:01:24.569Z,8.23
2022-11-04T04:04:26.210Z,12.90
2022-11-04T04:07:37.482Z,12.10
2022-11-04T04:10:59.021Z,8.32
2022-11-04T04:14:09.932Z,11.00
2022-11-04T04:17:30.141Z,13.35
2022-11-04T04:20:32.772Z,11.23
2022-11-04T04:23:54.795Z,9.70
2022-11-04T04:27:15.574Z,9.05
2022-11-04T04:30:17.282Z,7.57
2022-11-04T04:33:19.464Z,5.20
2022-11-04T04:36:21.225Z,13.68
2022-11-04T04:39:43.813Z,11.07
2022-11-04T04:43:20.313Z,23.15
2022-11-04T04:46:22.024Z,15.38
2022-11-04T04:49:23.590Z,12.55
2022-11-04T04:52:32.047Z,16.02
2022-11-04T04:55:38.903Z,12.00
2022-11-04T04:58:43.227Z,11.85
2022-11-04T05:01:44.954Z,8.85
2022-11-04T05:04:46.670Z,23.77
2022-11-04T05:07:48.260Z,7.18
2022-11-04T05:10:50.861Z,6.15
2022-11-04T05:13:52.453Z,1.13
2022-11-04T05:16:53.967Z,12.65
2022-11-04T05:19:55.719Z,3.83
2022-11-04T05:22:57.398Z,6.50
2022-11-04T05:25:59.601Z,11.57
2022-11-04T05:29:01.238Z,32.30
2022-11-04T05:32:02.934Z,15.93
2022-11-04T05:35:04.678Z,9.32
2022-11-04T05:38:06.704Z,13.48
2022-11-04T05:41:09.443Z,16.42
2022-11-04T05:44:11.241Z,19.67
2022-11-04T05:47:12.807Z,14.30
2022-11-04T05:50:14.475Z,17.98
2022-11-04T05:53:16.145Z,17.88
2022-11-04T05:56:17.925Z,18.08
2022-11-04T05:59:19.471Z,18.48
2022-11-04T06:02:21.311Z,19.98
2022-11-04T06:05:23.360Z,19.27
2022-11-04T06:08:24.911Z,17.98
2022-11-04T06:11:27.234Z,17.90
2022-11-04T06:14:28.847Z,15.73
2022-11-04T06:17:30.381Z,26.60
2022-11-04T06:20:32.114Z,21.05
2022-11-04T06:23:33.793Z,15.70
2022-11-04T06:26:35.449Z,19.85
2022-11-04T06:29:41.210Z,18.98
2022-11-04T06:32:42.790Z,19.03
2022-11-04T06:35:44.324Z,18.75
2022-11-04T06:38:45.906Z,16.27
2022-11-04T06:41:50.529Z,19.25
2022-11-04T06:44:53.397Z,20.23
2022-11-04T06:47:55.023Z,20.00
2022-11-04T06:50:59.778Z,16.23
2022-11-04T06:54:01.316Z,16.77
2022-11-04T06:57:03.679Z,18.80
2022-11-04T07:00:05.718Z,19.02
2022-11-04T07:03:08.464Z,17.52
2022-11-04T07:06:10.689Z,17.20
2022-11-04T07:09:13.826Z,19.85
2022-11-04T07:12:15.614Z,24.23
2022-11-04T07:15:17.175Z,16.45
2022-11-04T07:18:18.751Z,17.65
2022-11-04T07:21:20.406Z,10.43
2022-11-04T07:24:22.013Z,22.35
2022-11-04T07:27:23.600Z,20.73
2022-11-04T07:30:27.755Z,18.23
2022-11-04T07:33:29.654Z,21.90
2022-11-04T07:36:31.299Z,22.33
2022-11-04T07:39:32.932Z,19.25
2022-11-04T07:42:34.558Z,22.15
2022-11-04T07:45:41.613Z,23.45
2022-11-04T07:48:43.322Z,24.95
2022-11-04T07:51:44.963Z,22.83
2022-11-04T07:54:46.743Z,21.27
2022-11-04T07:57:48.587Z,20.10
2022-11-04T08:00:50.223Z,17.17
2022-11-04T08:03:52.135Z,18.75
2022-11-04T08:06:53.820Z,29.08
2022-11-04T08:09:55.437Z,23.55
2022-11-04T08:12:57.257Z,22.10
2022-11-04T08:16:03.126Z,26.33
2022-11-04T08:19:04.705Z,26.53
2022-11-04T08:22:06.431Z,20.55
2022-11-04T08:25:08.284Z,20.70
2022-11-04T08:28:13.150Z,19.35
2022-11-04T08:31:18.741Z,15.90
2022-11-04T08:34:20.700Z,11.52
2022-11-04T08:37:22.267Z,21.67
2022-11-04T08:40:24.717Z,12.10
2022-11-04T08:43:26.781Z,12.65
2022-11-04T08:46:29.341Z,12.77
2022-11-04T08:49:30.903Z,11.57
2022-11-04T08:52:32.480Z,12.38
2022-11-04T08:55:34.090Z,10.63
2022-11-04T08:58:35.672Z,11.65
2022-11-04T09:01:37.576Z,11.18
2022-11-04T09:04:39.226Z,8.32
2022-11-04T09:07:41.338Z,9.25
2022-11-04T09:10:46.912Z,6.88
2022-11-04T09:13:48.549Z,4.32
2022-11-04T09:16:50.047Z,7.50
2022-11-04T09:19:51.649Z,4.90
2022-11-04T09:22:54.304Z,6.38
2022-11-04T09:25:57.258Z,4.25
2022-11-04T09:28:59.443Z,5.22
2022-11-04T09:32:01.455Z,5.82
2022-11-04T09:35:03.069Z,6.70
2022-11-04T09:38:04.677Z,4.50
2022-11-04T09:41:29.685Z,5.30
2022-11-04T09:45:14.851Z,7.25
2022-11-04T09:48:08.953Z,3.47
2022-11-04T09:51:26.145Z,4.22
2022-11-04T09:54:45.840Z,5.05
2022-11-04T09:57:54.165Z,8.60
2022-11-04T10:01:04.721Z,7.63
2022-11-04T10:04:22.922Z,4.80
2022-11-04T10:07:27.597Z,6.97
2022-11-04T10:10:29.285Z,4.03
2022-11-04T10:13:36.714Z,7.13
2022-11-04T10:16:57.238Z,4.50
2022-11-04T10:20:19.195Z,8.70
2022-11-04T10:23:22.625Z,8.40
2022-11-04T10:26:30.322Z,7.45
2022-11-04T10:29:38.015Z,7.30
2022-11-04T10:32:47.265Z,6.30
2022-11-04T10:35:51.860Z,8.70
2022-11-04T10:38:57.439Z,11.43
2022-11-04T10:41:59.380Z,8.37
2022-11-04T10:45:01.487Z,14.30
2022-11-04T10:48:09.814Z,11.60
2022-11-04T10:51:12.269Z,8.50
2022-11-04T10:54:13.863Z,8.18
2022-11-04T10:57:26.453Z,12.52
2022-11-04T11:00:39.302Z,12.32
2022-11-04T11:03:40.993Z,8.55
2022-11-04T11:06:42.668Z,12.48
2022-11-04T11:09:54.737Z,8.68
2022-11-04T11:13:02.238Z,9.45
2022-11-04T11:16:04.899Z,9.10
2022-11-04T11:19:12.630Z,15.52
2022-11-04T11:22:33.064Z,12.80
2022-11-04T11:25:35.290Z,11.45
2022-11-04T11:28:38.385Z,9.20
2022-11-04T11:31:40.366Z,13.85
2022-11-04T11:34:45.610Z,11.55
2022-11-04T11:37:47.682Z,10.43
2022-11-04T11:41:18.703Z,10.70
2022-11-04T11:44:25.520Z,9.38
2022-11-04T11:47:30.073Z,6.70
2022-11-04T11:50:34.410Z,2.75
2022-11-04T11:53:38.341Z,8.77
2022-11-04T11:57:07.396Z,4.28
2022-11-04T12:10:56.142Z,2.35
2022-11-04T12:14:00.254Z,4.15
2022-11-04T12:17:12.634Z,3.22
2022-11-04T12:20:23.116Z,2.95
2022-11-04T12:23:29.312Z,2.05
2022-11-04T12:26:57.580Z,2.45
2022-11-04T12:30:08.561Z,3.50
2022-11-04T12:33:21.322Z,1.67
2022-11-04T12:36:31.278Z,3.00
2022-11-04T12:39:40.398Z,3.05
2022-11-04T12:42:41.968Z,3.90
2022-11-04T12:45:49.388Z,3.28
2022-11-04T12:49:21.190Z,1.75
2022-11-04T12:52:22.777Z,1.85
2022-11-04T12:55:38.286Z,5.85
2022-11-04T12:58:48.918Z,3.55
2022-11-04T13:01:52.784Z,2.13
2022-11-04T13:05:03.590Z,2.05
2022-11-04T13:08:09.835Z,1.85
2022-11-04T13:11:23.754Z,3.75
2022-11-04T13:14:30.306Z,0.45
2022-11-04T13:20:36.420Z,3.42
2022-11-04T13:23:50.282Z,2.42
2022-11-04T13:26:52.209Z,1.30
2022-11-04T13:30:13.694Z,2.63
2022-11-04T13:33:26.044Z,5.93
2022-11-04T13:36:40.890Z,1.17
2022-11-04T13:39:47.973Z,1.33
2022-11-04T13:42:49.526Z,1.40
2022-11-04T13:45:55.267Z,1.17
2022-11-04T13:49:03.148Z,1.63
2022-11-04T13:52:09.010Z,1.60
2022-11-04T13:55:21.564Z,1.60
2022-11-04T13:58:27.128Z,2.38
2022-11-04T14:01:30.492Z,3.10
2022-11-04T14:04:32.215Z,6.15
2022-11-04T14:08:03.089Z,1.00
2022-11-04T14:11:10.244Z,2.90
2022-11-04T14:14:17.294Z,1.38
2022-11-04T14:17:34.320Z,2.92
2022-11-04T14:20:56.030Z,0.95
2022-11-04T14:24:01.740Z,1.23
2022-11-04T14:27:04.997Z,1.50
2022-11-04T14:30:08.068Z,2.28
2022-11-04T14:33:19.060Z,0.65
2022-11-04T14:36:20.577Z,1.05
2022-11-04T14:39:27.889Z,0.03
2022-11-04T14:42:48.090Z,2.75
2022-11-04T14:45:49.742Z,0.60
2022-11-04T14:48:52.617Z,0.38
2022-11-04T14:51:54.372Z,0.20
2022-11-04T14:55:13.165Z,2.17
2022-11-04T14:58:20.950Z,0.50
2022-11-04T15:01:27.443Z,2.20
2022-11-04T15:04:32.716Z,1.75
2022-11-04T15:07:38.877Z,1.58
2022-11-04T15:10:40.513Z,1.05
2022-11-04T15:13:49.588Z,0.55
2022-11-04T15:16:52.845Z,0.30
2022-11-04T15:19:56.083Z,1.40
2022-11-04T15:22:58.860Z,0.17
2022-11-04T15:26:00.732Z,0.20
2022-11-04T15:29:08.238Z,0.65
2022-11-04T15:32:16.887Z,0.43
2022-11-04T15:35:18.601Z,0.35
2022-11-04T15:38:20.567Z,0.10
2022-11-04T15:41:41.322Z,0.20
2022-11-04T15:44:51.191Z,0.70
2022-11-04T15:48:11.598Z,1.88
2022-11-04T15:51:13.147Z,1.42
2022-11-04T15:54:23.082Z,1.45
2022-11-04T15:57:26.500Z,3.35
2022-11-04T16:00:28.960Z,0.90
2022-11-04T16:03:30.773Z,2.22
2022-11-04T16:06:36.929Z,2.35
2022-11-04T16:09:49.805Z,1.48
2022-11-04T16:13:20.397Z,1.50
2022-11-04T16:16:24.624Z,0.68
2022-11-04T16:19:28.901Z,4.47
2022-11-04T16:22:37.346Z,1.25
2022-11-04T16:25:38.930Z,4.78
2022-11-04T16:28:40.879Z,2.10
2022-11-04T16:31:43.339Z,3.75
2022-11-04T16:34:45.889Z,0.50
2022-11-04T16:37:47.871Z,0.00
2022-11-04T16:40:49.878Z,0.47
2022-11-04T16:43:51.585Z,0.63
2022-11-04T16:46:54.391Z,0.20
2022-11-04T16:50:00.164Z,0.28
2022-11-04T16:53:02.474Z,0.20
2022-11-04T16:56:04.120Z,0.52
2022-11-04T16:59:05.723Z,0.32
2022-11-04T17:02:23.748Z,0.25
2022-11-04T17:05:25.581Z,0.17
2022-11-04T17:08:27.219Z,1.25
2022-11-04T17:11:30.306Z,0.20
2022-11-04T17:14:31.997Z,0.40
2022-11-04T17:17:33.694Z,1.75
2022-11-04T17:20:35.430Z,0.50
2022-11-04T17:23:36.976Z,0.80
2022-11-04T17:26:38.639Z,0.10
2022-11-04T17:29:42.762Z,0.75
2022-11-04T17:32:44.915Z,0.55
2022-11-04T17:35:49.428Z,0.30
2022-11-04T17:38:51.104Z,0.32
2022-11-04T17:42:11.044Z,3.53
2022-11-04T17:45:12.737Z,3.20
2022-11-04T17:48:15.628Z,1.13
2022-11-04T17:51:17.313Z,0.85
2022-11-04T17:54:19.666Z,1.25
2022-11-04T17:57:21.238Z,1.08
2022-11-04T18:00:26.140Z,0.57
2022-11-04T18:03:27.701Z,1.58
2022-11-04T18:06:33.458Z,1.23
2022-11-04T18:09:36.351Z,0.40
2022-11-04T18:12:41.256Z,0.47
2022-11-04T18:15:42.912Z,1.08
2022-11-04T18:18:44.557Z,0.65
2022-11-04T18:21:46.321Z,0.60
2022-11-04T18:24:47.997Z,0.55
2022-11-04T18:27:49.767Z,0.28
2022-11-04T18:30:51.394Z,0.52
2022-11-04T18:33:53.021Z,1.42
2022-11-04T18:36:56.143Z,0.63
2022-11-04T18:39:57.760Z,1.25
2022-11-04T18:43:05.954Z,3.20
2022-11-04T18:46:11.605Z,1.35
2022-11-04T18:49:14.214Z,1.60
2022-11-04T18:52:15.825Z,1.70
2022-11-04T18:55:17.414Z,7.30
2022-11-04T18:58:19.288Z,0.00
2022-11-04T19:01:24.045Z,3.55
2022-11-04T19:04:25.693Z,1.20
2022-11-04T19:07:27.284Z,0.17
2022-11-04T19:10:29.033Z,0.52
2022-11-04T19:13:30.653Z,0.73
2022-11-04T19:16:32.660Z,0.30
2022-11-04T19:19:34.263Z,0.00
2022-11-04T19:22:35.865Z,0.32
2022-11-04T19:25:41.424Z,0.22
2022-11-04T19:28:48.068Z,1.25
2022-11-04T19:31:50.523Z,0.60
2022-11-04T19:34:52.250Z,0.13
2022-11-04T19:37:53.959Z,0.95
2022-11-04T19:40:56.031Z,1.45
2022-11-04T19:43:57.682Z,1.83
2022-11-04T19:46:59.321Z,0.25
2022-11-04T19:50:00.968Z,1.05
2022-11-04T19:53:02.607Z,0.10
2022-11-04T19:56:04.589Z,0.22
2022-11-04T19:59:07.212Z,0.60
2022-11-04T20:02:10.161Z,0.52
2022-11-04T20:05:11.859Z,0.20
2022-11-04T20:08:13.829Z,0.22
2022-11-04T20:11:16.192Z,0.90
2022-11-04T20:14:17.887Z,0.55
2022-11-04T20:17:19.484Z,0.30
2022-11-04T20:20:21.055Z,0.10
2022-11-04T20:23:22.665Z,0.05
2022-11-04T20:26:24.390Z,0.00
2022-11-04T20:29:26.052Z,0.85
2022-11-04T20:32:27.678Z,0.32
2022-11-04T20:35:29.465Z,0.43
2022-11-04T20:38:31.057Z,0.60
2022-11-04T20:41:33.278Z,0.75
2022-11-04T20:44:34.893Z,0.10
2022-11-04T20:47:37.017Z,0.00
2022-11-04T20:50:38.596Z,0.00
2022-11-04T20:53:40.428Z,0.15
2022-11-04T20:56:42.688Z,0.00
2022-11-04T20:59:44.280Z,0.30
2022-11-04T21:02:45.849Z,0.17
2022-11-04T21:05:47.498Z,0.00
2022-11-04T21:08:51.657Z,0.25
2022-11-04T21:11:53.228Z,0.17
2022-11-04T21:14:54.730Z,0.40
2022-11-04T21:17:56.308Z,0.50
2022-11-04T21:20:58.326Z,0.08
2022-11-04T21:24:00.868Z,0.00
2022-11-04T21:27:03.315Z,0.40
2022-11-04T21:30:06.369Z,0.03
2022-11-04T21:33:08.309Z,0.00
2022-11-04T21:36:11.930Z,0.35
2022-11-04T21:39:13.555Z,0.00
2022-11-04T21:42:15.117Z,0.75
2022-11-04T21:45:16.909Z,0.00
2022-11-04T21:48:18.523Z,0.30
2022-11-04T21:51:21.379Z,0.40
2022-11-04T21:54:23.046Z,0.20
2022-11-04T21:57:25.268Z,0.20
2022-11-04T22:00:26.961Z,0.10
2022-11-04T22:03:28.700Z,0.50
2022-11-04T22:06:34.842Z,0.40
2022-11-04T22:09:37.160Z,0.10
2022-11-04T22:12:38.713Z,0.00
2022-11-04T22:15:58.635Z,0.10
2022-11-04T22:19:01.243Z,0.03
2022-11-04T22:22:02.941Z,0.22
2022-11-04T22:25:04.719Z,0.43
2022-11-04T22:28:06.350Z,2.78
2022-11-04T22:31:12.394Z,0.77
2022-11-04T22:34:13.954Z,0.63
2022-11-04T22:37:15.513Z,0.28
2022-11-04T22:40:17.289Z,0.40
2022-11-04T22:43:18.852Z,0.45
2022-11-04T22:46:22.159Z,0.03
2022-11-04T22:49:23.773Z,1.80
2022-11-04T22:52:25.363Z,0.30
2022-11-04T22:55:26.954Z,0.17
2022-11-04T22:58:29.318Z,0.55
2022-11-04T23:01:31.818Z,0.25
2022-11-04T23:04:33.558Z,0.00
2022-11-04T23:07:35.142Z,0.68
2022-11-04T23:10:55.292Z,0.20
2022-11-04T23:14:20.562Z,0.08
2022-11-04T23:17:41.874Z,0.47
2022-11-04T23:20:43.416Z,0.00
2022-11-04T23:24:03.562Z,0.20
2022-11-04T23:27:05.137Z,2.28
2022-11-04T23:30:25.817Z,1.65
2022-11-04T23:33:45.797Z,0.30
2022-11-04T23:37:05.934Z,1.55
2022-11-04T23:40:08.119Z,0.35
2022-11-04T23:43:10.012Z,0.43
2022-11-04T23:46:30.625Z,0.40
2022-11-04T23:49:50.910Z,0.75
2022-11-04T23:53:11.450Z,0.35
2022-11-04T23:56:32.149Z,0.63
2022-11-04T23:59:52.392Z,1.17
